EXS38N LGSM-EGCC
Flight info
| Callsign | EXS38N |
|---|---|
| Flight time | N/A |
| Altitude | 40000 |
| Route | URNIL UL609 MES UL618 LMO UN128 FSK UL608 DISOR DCT LONTA UL608 DOLEV DCT MITNO DCT LURID DCT BEDOX DCT NEMAL DCT SIMBA DCT MAMOR DCT INBED DCT BOMBI DCT BUB L608 DENUT L610 LAM UN57 WELIN T420 ELVOS |
| Aircraft | B738/M-SDE2E3FGHIRWXY/LB1 |
Departure
| Time | 2026-05-08 10:44 |
|---|---|
| Airport | Samos Airport (LGSM) |
Arrival
| Time | N/A |
|---|---|
| Airport | Manchester Airport (EGCC) |
| Time | Latitude | Longitude | Altitude | Speed | Heading |
|---|---|---|---|---|---|
| 2026-05-08 10:09 | 37.69058 | 26.91379 | 28 ft | 0 kts | 4° |
| 2026-05-08 10:36 | 37.69054 | 26.91379 | 28 ft | 3 kts | 4° |
| 2026-05-08 10:36 | 37.69030 | 26.91376 | 28 ft | 3 kts | 4° |
| 2026-05-08 10:37 | 37.69006 | 26.91379 | 28 ft | 4 kts | 326° |
| 2026-05-08 10:37 | 37.68995 | 26.91402 | 28 ft | 4 kts | 264° |
| 2026-05-08 10:37 | 37.69000 | 26.91433 | 28 ft | 2 kts | 259° |
| 2026-05-08 10:37 | 37.69000 | 26.91436 | 28 ft | 0 kts | 259° |
| 2026-05-08 10:40 | 37.69000 | 26.91435 | 28 ft | 1 kts | 259° |
| 2026-05-08 10:41 | 37.68989 | 26.91388 | 28 ft | 9 kts | 241° |
| 2026-05-08 10:41 | 37.68930 | 26.91361 | 28 ft | 9 kts | 204° |
| 2026-05-08 10:41 | 37.68912 | 26.91286 | 28 ft | 12 kts | 275° |
| 2026-05-08 10:41 | 37.68920 | 26.91145 | 28 ft | 20 kts | 274° |
| 2026-05-08 10:42 | 37.68928 | 26.91023 | 28 ft | 21 kts | 274° |
| 2026-05-08 10:42 | 37.68939 | 26.90839 | 28 ft | 21 kts | 274° |
| 2026-05-08 10:42 | 37.68950 | 26.90662 | 28 ft | 20 kts | 274° |
| 2026-05-08 10:42 | 37.68961 | 26.90477 | 28 ft | 21 kts | 274° |
| 2026-05-08 10:43 | 37.68972 | 26.90293 | 28 ft | 20 kts | 274° |
| 2026-05-08 10:43 | 37.68991 | 26.90188 | 28 ft | 8 kts | 301° |
| 2026-05-08 10:43 | 37.68989 | 26.90158 | 28 ft | 1 kts | 185° |
| 2026-05-08 10:43 | 37.68983 | 26.90172 | 28 ft | 4 kts | 112° |
| 2026-05-08 10:44 | 37.68969 | 26.90352 | 28 ft | 51 kts | 95° |
| 2026-05-08 10:44 | 37.68924 | 26.91111 | 28 ft | 120 kts | 95° |
| 2026-05-08 10:44 | 37.68852 | 26.92372 | 147 ft | 162 kts | 95° |
| 2026-05-08 10:44 | 37.68777 | 26.93790 | 911 ft | 162 kts | 91° |
| 2026-05-08 10:45 | 37.69024 | 26.95170 | 1566 ft | 167 kts | 58° |
| 2026-05-08 10:45 | 37.69892 | 26.96152 | 2083 ft | 174 kts | 19° |
| 2026-05-08 10:45 | 37.71087 | 26.96258 | 2661 ft | 177 kts | 340° |
| 2026-05-08 10:45 | 37.72073 | 26.95407 | 3305 ft | 175 kts | 302° |
| 2026-05-08 10:46 | 37.72417 | 26.93935 | 3837 ft | 183 kts | 265° |
| 2026-05-08 10:46 | 37.72229 | 26.92317 | 4483 ft | 188 kts | 261° |
| 2026-05-08 10:46 | 37.72053 | 26.90619 | 4942 ft | 202 kts | 262° |
| 2026-05-08 10:46 | 37.71881 | 26.88820 | 5377 ft | 210 kts | 262° |
| 2026-05-08 10:47 | 37.71673 | 26.86976 | 5863 ft | 218 kts | 261° |
| 2026-05-08 10:47 | 37.71484 | 26.85011 | 6371 ft | 229 kts | 262° |
| 2026-05-08 10:47 | 37.71317 | 26.83019 | 7153 ft | 227 kts | 262° |
| 2026-05-08 10:47 | 37.71156 | 26.81028 | 7860 ft | 228 kts | 262° |
| 2026-05-08 10:48 | 37.70995 | 26.79031 | 8560 ft | 230 kts | 262° |
| 2026-05-08 10:48 | 37.70835 | 26.77016 | 9229 ft | 232 kts | 262° |
| 2026-05-08 10:48 | 37.70678 | 26.74975 | 9918 ft | 235 kts | 262° |
| 2026-05-08 10:48 | 37.70523 | 26.72914 | 10564 ft | 237 kts | 262° |
| 2026-05-08 10:49 | 37.70373 | 26.70889 | 11198 ft | 238 kts | 262° |
| 2026-05-08 10:49 | 37.70189 | 26.68790 | 11600 ft | 253 kts | 259° |
| 2026-05-08 10:49 | 37.70045 | 26.66452 | 11755 ft | 280 kts | 278° |
| 2026-05-08 10:49 | 37.70908 | 26.64267 | 12364 ft | 290 kts | 312° |
| 2026-05-08 10:50 | 37.72490 | 26.62652 | 13078 ft | 298 kts | 320° |
| 2026-05-08 10:50 | 37.74213 | 26.61031 | 13265 ft | 321 kts | 321° |
| 2026-05-08 10:50 | 37.76077 | 26.59293 | 13458 ft | 344 kts | 321° |
| 2026-05-08 10:50 | 37.78047 | 26.57443 | 13773 ft | 360 kts | 321° |
| 2026-05-08 10:51 | 37.80068 | 26.55530 | 14385 ft | 363 kts | 320° |
| 2026-05-08 10:51 | 37.82080 | 26.53611 | 15236 ft | 361 kts | 320° |
| 2026-05-08 10:51 | 37.84083 | 26.51686 | 16014 ft | 361 kts | 319° |
| 2026-05-08 10:51 | 37.86077 | 26.49759 | 16760 ft | 362 kts | 319° |
| 2026-05-08 10:52 | 37.88079 | 26.47819 | 17493 ft | 363 kts | 319° |
| 2026-05-08 10:52 | 37.90083 | 26.45870 | 18211 ft | 364 kts | 318° |
| 2026-05-08 10:52 | 37.92094 | 26.43911 | 18872 ft | 365 kts | 318° |
| 2026-05-08 10:52 | 37.94108 | 26.41947 | 19478 ft | 367 kts | 318° |
| 2026-05-08 10:53 | 37.96135 | 26.39968 | 20081 ft | 369 kts | 318° |
| 2026-05-08 10:53 | 37.98172 | 26.37979 | 20661 ft | 370 kts | 318° |
| 2026-05-08 10:53 | 38.00220 | 26.35977 | 21207 ft | 374 kts | 319° |
| 2026-05-08 10:53 | 38.02292 | 26.33950 | 21648 ft | 379 kts | 319° |
| 2026-05-08 10:54 | 38.04386 | 26.31900 | 22160 ft | 381 kts | 319° |
| 2026-05-08 10:54 | 38.06491 | 26.29839 | 22722 ft | 383 kts | 319° |
| 2026-05-08 10:54 | 38.08608 | 26.27764 | 23225 ft | 386 kts | 319° |
| 2026-05-08 10:54 | 38.10739 | 26.25673 | 23751 ft | 388 kts | 319° |
| 2026-05-08 10:55 | 38.12880 | 26.23572 | 24148 ft | 390 kts | 319° |
| 2026-05-08 10:55 | 38.15034 | 26.21455 | 24542 ft | 393 kts | 318° |
| 2026-05-08 10:55 | 38.17200 | 26.19325 | 24958 ft | 395 kts | 318° |
| 2026-05-08 10:55 | 38.19380 | 26.17180 | 25375 ft | 397 kts | 318° |
| 2026-05-08 10:56 | 38.21567 | 26.15027 | 25780 ft | 399 kts | 317° |
| 2026-05-08 10:56 | 38.23776 | 26.12849 | 26180 ft | 401 kts | 317° |
| 2026-05-08 10:56 | 38.25985 | 26.10670 | 26570 ft | 403 kts | 317° |
| 2026-05-08 10:56 | 38.28180 | 26.08503 | 26943 ft | 405 kts | 317° |
| 2026-05-08 10:57 | 38.30417 | 26.06293 | 27309 ft | 407 kts | 316° |
| 2026-05-08 10:57 | 38.32665 | 26.04070 | 27672 ft | 408 kts | 316° |
| 2026-05-08 10:57 | 38.37163 | 25.99618 | 28400 ft | 413 kts | 316° |
| 2026-05-08 10:58 | 38.39434 | 25.97367 | 28785 ft | 414 kts | 315° |
| 2026-05-08 10:58 | 38.41719 | 25.95101 | 29148 ft | 416 kts | 315° |
| 2026-05-08 10:58 | 38.44012 | 25.92824 | 29438 ft | 419 kts | 315° |
| 2026-05-08 10:58 | 38.46324 | 25.90526 | 29704 ft | 422 kts | 315° |
| 2026-05-08 10:59 | 38.48623 | 25.88240 | 30033 ft | 423 kts | 315° |
| 2026-05-08 10:59 | 38.50953 | 25.85922 | 30371 ft | 424 kts | 315° |
| 2026-05-08 10:59 | 38.53290 | 25.83594 | 30659 ft | 425 kts | 314° |
| 2026-05-08 10:59 | 38.55596 | 25.81298 | 31005 ft | 424 kts | 314° |
| 2026-05-08 11:00 | 38.57914 | 25.78989 | 31439 ft | 421 kts | 314° |
| 2026-05-08 11:00 | 38.60213 | 25.76693 | 31880 ft | 417 kts | 314° |
| 2026-05-08 11:00 | 38.62457 | 25.74361 | 32278 ft | 414 kts | 312° |
| 2026-05-08 11:00 | 38.64664 | 25.71985 | 32594 ft | 413 kts | 311° |
| 2026-05-08 11:01 | 38.66843 | 25.69604 | 32926 ft | 412 kts | 311° |
| 2026-05-08 11:01 | 38.69017 | 25.67223 | 33300 ft | 410 kts | 311° |
| 2026-05-08 11:01 | 38.71179 | 25.64858 | 33691 ft | 408 kts | 311° |
| 2026-05-08 11:01 | 38.73347 | 25.62491 | 33949 ft | 409 kts | 311° |
| 2026-05-08 11:02 | 38.79935 | 25.55308 | 34498 ft | 415 kts | 311° |
| 2026-05-08 11:02 | 38.82140 | 25.52914 | 34867 ft | 412 kts | 311° |
| 2026-05-08 11:03 | 38.84321 | 25.50543 | 35150 ft | 411 kts | 311° |
| 2026-05-08 11:03 | 38.86476 | 25.48196 | 35375 ft | 411 kts | 311° |
| 2026-05-08 11:03 | 38.88667 | 25.45806 | 35611 ft | 411 kts | 311° |
| 2026-05-08 11:03 | 38.90849 | 25.43425 | 35865 ft | 411 kts | 311° |
| 2026-05-08 11:04 | 38.93027 | 25.41044 | 36031 ft | 412 kts | 312° |
| 2026-05-08 11:04 | 38.95212 | 25.38655 | 36262 ft | 411 kts | 312° |
| 2026-05-08 11:04 | 38.97387 | 25.36276 | 36548 ft | 410 kts | 312° |
| 2026-05-08 11:04 | 38.99527 | 25.33934 | 36812 ft | 408 kts | 312° |
| 2026-05-08 11:05 | 39.01699 | 25.31554 | 37012 ft | 409 kts | 312° |
| 2026-05-08 11:05 | 39.06046 | 25.26777 | 37228 ft | 414 kts | 312° |
| 2026-05-08 11:05 | 39.08233 | 25.24375 | 37514 ft | 412 kts | 312° |
| 2026-05-08 11:06 | 39.10411 | 25.21984 | 37774 ft | 410 kts | 312° |
| 2026-05-08 11:06 | 39.12580 | 25.19597 | 37945 ft | 411 kts | 312° |
| 2026-05-08 11:06 | 39.14761 | 25.17194 | 38099 ft | 412 kts | 312° |
| 2026-05-08 11:07 | 39.19118 | 25.12384 | 38166 ft | 417 kts | 313° |
| 2026-05-08 11:07 | 39.23549 | 25.07488 | 38160 ft | 418 kts | 313° |
| 2026-05-08 11:08 | 39.27974 | 25.02593 | 38159 ft | 419 kts | 313° |
| 2026-05-08 11:08 | 39.32399 | 24.97689 | 38154 ft | 419 kts | 313° |
| 2026-05-08 11:09 | 39.36800 | 24.92802 | 38157 ft | 419 kts | 313° |
| 2026-05-08 11:09 | 39.41233 | 24.87870 | 38155 ft | 420 kts | 313° |
| 2026-05-08 11:10 | 39.45671 | 24.82925 | 38178 ft | 421 kts | 313° |
| 2026-05-08 11:10 | 39.50093 | 24.77988 | 38162 ft | 422 kts | 313° |
| 2026-05-08 11:11 | 39.54553 | 24.73000 | 38153 ft | 423 kts | 313° |
| 2026-05-08 11:11 | 39.59015 | 24.68002 | 38152 ft | 423 kts | 313° |
| 2026-05-08 11:12 | 39.63447 | 24.63029 | 38153 ft | 424 kts | 313° |
| 2026-05-08 11:12 | 39.67917 | 24.58004 | 38154 ft | 424 kts | 313° |
| 2026-05-08 11:13 | 39.72373 | 24.52985 | 38167 ft | 424 kts | 313° |
| 2026-05-08 11:13 | 39.76805 | 24.47984 | 38142 ft | 424 kts | 313° |
| 2026-05-08 11:14 | 39.81242 | 24.42970 | 38142 ft | 423 kts | 313° |
| 2026-05-08 11:14 | 39.85696 | 24.37928 | 38166 ft | 423 kts | 313° |
| 2026-05-08 11:15 | 39.90136 | 24.32891 | 38143 ft | 423 kts | 312° |
| 2026-05-08 11:15 | 39.94550 | 24.27875 | 38144 ft | 423 kts | 312° |
| 2026-05-08 11:16 | 39.98988 | 24.22823 | 38138 ft | 423 kts | 312° |
| 2026-05-08 11:16 | 40.03422 | 24.17765 | 38142 ft | 424 kts | 313° |
| 2026-05-08 11:17 | 40.07840 | 24.12718 | 38136 ft | 424 kts | 313° |
| 2026-05-08 11:17 | 40.12297 | 24.07617 | 38138 ft | 424 kts | 313° |
| 2026-05-08 11:18 | 40.16720 | 24.02544 | 38140 ft | 427 kts | 313° |
| 2026-05-08 11:18 | 40.21195 | 23.97404 | 38125 ft | 428 kts | 313° |
| 2026-05-08 11:19 | 40.25672 | 23.92253 | 38140 ft | 428 kts | 313° |
| 2026-05-08 11:19 | 40.30157 | 23.87083 | 38131 ft | 429 kts | 312° |
| 2026-05-08 11:20 | 40.34623 | 23.81924 | 38123 ft | 429 kts | 312° |
| 2026-05-08 11:20 | 40.39087 | 23.76760 | 38126 ft | 429 kts | 312° |
| 2026-05-08 11:21 | 40.43557 | 23.71579 | 38133 ft | 429 kts | 312° |
| 2026-05-08 11:21 | 40.48035 | 23.66378 | 38124 ft | 429 kts | 312° |
| 2026-05-08 11:22 | 40.52511 | 23.61169 | 38121 ft | 429 kts | 312° |
| 2026-05-08 11:22 | 40.56987 | 23.55951 | 38120 ft | 430 kts | 312° |
| 2026-05-08 11:23 | 40.61436 | 23.50755 | 38129 ft | 430 kts | 312° |
| 2026-05-08 11:23 | 40.65910 | 23.45521 | 38113 ft | 430 kts | 312° |
| 2026-05-08 11:24 | 40.70365 | 23.40299 | 38127 ft | 429 kts | 312° |
| 2026-05-08 11:24 | 40.74840 | 23.35042 | 38118 ft | 430 kts | 312° |
| 2026-05-08 11:25 | 40.79286 | 23.29810 | 38112 ft | 430 kts | 312° |
| 2026-05-08 11:25 | 40.83755 | 23.24542 | 38118 ft | 431 kts | 312° |
| 2026-05-08 11:26 | 40.88241 | 23.19244 | 38114 ft | 432 kts | 312° |
| 2026-05-08 11:26 | 40.92693 | 23.13975 | 38109 ft | 432 kts | 312° |
| 2026-05-08 11:27 | 40.97174 | 23.08663 | 38118 ft | 432 kts | 312° |
| 2026-05-08 11:27 | 41.01636 | 23.03363 | 38112 ft | 432 kts | 312° |
| 2026-05-08 11:28 | 41.05357 | 22.98935 | 38114 ft | 432 kts | 312° |
| 2026-05-08 11:28 | 41.10570 | 22.92719 | 38114 ft | 433 kts | 312° |
| 2026-05-08 11:29 | 41.14322 | 22.88237 | 38110 ft | 433 kts | 312° |
| 2026-05-08 11:29 | 41.18779 | 22.82903 | 38127 ft | 433 kts | 312° |
| 2026-05-08 11:30 | 41.23295 | 22.77488 | 38112 ft | 438 kts | 312° |
| 2026-05-08 11:30 | 41.27587 | 22.71779 | 38105 ft | 433 kts | 307° |
| 2026-05-08 11:31 | 41.31593 | 22.65859 | 38103 ft | 432 kts | 307° |
| 2026-05-08 11:31 | 41.35581 | 22.59932 | 38118 ft | 431 kts | 307° |
| 2026-05-08 11:32 | 41.39612 | 22.53980 | 38108 ft | 430 kts | 307° |
| 2026-05-08 11:32 | 41.43609 | 22.48095 | 38081 ft | 430 kts | 307° |
| 2026-05-08 11:33 | 41.47624 | 22.42180 | 38106 ft | 429 kts | 307° |
| 2026-05-08 11:33 | 41.51617 | 22.36283 | 38097 ft | 430 kts | 307° |
| 2026-05-08 11:34 | 41.55631 | 22.30344 | 38067 ft | 431 kts | 307° |
| 2026-05-08 11:34 | 41.59649 | 22.24387 | 38077 ft | 430 kts | 307° |
| 2026-05-08 11:35 | 41.63639 | 22.18460 | 38097 ft | 431 kts | 307° |
| 2026-05-08 11:35 | 41.67665 | 22.12467 | 38096 ft | 432 kts | 307° |
| 2026-05-08 11:36 | 41.71672 | 22.06489 | 38078 ft | 434 kts | 307° |
| 2026-05-08 11:36 | 41.75715 | 22.00446 | 38069 ft | 435 kts | 307° |
| 2026-05-08 11:37 | 41.79747 | 21.94407 | 38058 ft | 437 kts | 307° |
| 2026-05-08 11:37 | 41.83811 | 21.88310 | 38058 ft | 437 kts | 307° |
| 2026-05-08 11:38 | 41.87839 | 21.82252 | 38068 ft | 438 kts | 307° |
| 2026-05-08 11:38 | 41.91905 | 21.76124 | 38064 ft | 439 kts | 307° |
| 2026-05-08 11:39 | 41.95951 | 21.70015 | 38055 ft | 438 kts | 307° |
| 2026-05-08 11:39 | 42.00007 | 21.63879 | 38050 ft | 438 kts | 307° |
| 2026-05-08 11:40 | 42.04041 | 21.57761 | 38053 ft | 437 kts | 307° |
| 2026-05-08 11:40 | 42.08054 | 21.51663 | 38064 ft | 437 kts | 307° |
| 2026-05-08 11:41 | 42.12078 | 21.45535 | 38061 ft | 436 kts | 307° |
| 2026-05-08 11:41 | 42.16096 | 21.39404 | 38052 ft | 435 kts | 306° |
| 2026-05-08 11:42 | 42.20015 | 21.33261 | 38083 ft | 433 kts | 306° |
| 2026-05-08 11:42 | 42.23916 | 21.27047 | 38059 ft | 433 kts | 306° |
| 2026-05-08 11:43 | 42.27803 | 21.20851 | 38071 ft | 433 kts | 306° |
| 2026-05-08 11:43 | 42.31711 | 21.14626 | 38075 ft | 433 kts | 306° |
| 2026-05-08 11:44 | 42.35618 | 21.08394 | 38074 ft | 434 kts | 306° |
| 2026-05-08 11:44 | 42.39500 | 21.02189 | 38075 ft | 434 kts | 306° |
| 2026-05-08 11:45 | 42.43417 | 20.95915 | 38075 ft | 435 kts | 306° |
| 2026-05-08 11:45 | 42.47312 | 20.89663 | 38085 ft | 437 kts | 306° |
| 2026-05-08 11:46 | 42.51256 | 20.83318 | 38075 ft | 441 kts | 306° |
| 2026-05-08 11:46 | 42.55216 | 20.76935 | 38070 ft | 442 kts | 306° |
| 2026-05-08 11:47 | 42.59156 | 20.70573 | 38057 ft | 442 kts | 306° |
| 2026-05-08 11:47 | 42.63108 | 20.64177 | 38051 ft | 441 kts | 306° |
| 2026-05-08 11:48 | 42.67034 | 20.57808 | 38042 ft | 439 kts | 306° |
| 2026-05-08 11:48 | 42.70957 | 20.51428 | 38033 ft | 438 kts | 306° |
| 2026-05-08 11:49 | 42.74850 | 20.45084 | 38048 ft | 437 kts | 306° |
| 2026-05-08 11:49 | 42.78752 | 20.38711 | 38042 ft | 437 kts | 306° |
| 2026-05-08 11:50 | 42.82620 | 20.32391 | 38017 ft | 437 kts | 306° |
| 2026-05-08 11:50 | 42.87082 | 20.26738 | 38032 ft | 442 kts | 316° |
| 2026-05-08 11:51 | 42.91898 | 20.21478 | 38034 ft | 443 kts | 317° |
| 2026-05-08 11:51 | 42.96709 | 20.16191 | 38001 ft | 443 kts | 316° |
| 2026-05-08 11:52 | 43.01448 | 20.10903 | 38010 ft | 443 kts | 316° |
| 2026-05-08 11:52 | 43.06226 | 20.05530 | 37991 ft | 443 kts | 316° |
| 2026-05-08 11:53 | 43.10999 | 20.00145 | 37991 ft | 444 kts | 316° |
| 2026-05-08 11:53 | 43.15746 | 19.94780 | 37988 ft | 444 kts | 316° |
| 2026-05-08 11:54 | 43.20532 | 19.89361 | 37990 ft | 444 kts | 316° |
| 2026-05-08 11:54 | 43.25273 | 19.83983 | 37998 ft | 444 kts | 316° |